sensor_id;sensor_type;location;lat;lon;timestamp;temperature;humidity
78536;SHT31;67829;51.968;5.684;2023-04-29T00:02:17;13.0;68.0
78536;SHT31;67829;51.968;5.684;2023-04-29T00:04:45;13.0;68.6
78536;SHT31;67829;51.968;5.684;2023-04-29T00:07:14;13.0;68.3
78536;SHT31;67829;51.968;5.684;2023-04-29T00:09:42;13.0;68.6
78536;SHT31;67829;51.968;5.684;2023-04-29T00:12:11;13.0;68.4
78536;SHT31;67829;51.968;5.684;2023-04-29T00:14:40;13.0;68.6
78536;SHT31;67829;51.968;5.684;2023-04-29T00:17:09;13.0;68.4
78536;SHT31;67829;51.968;5.684;2023-04-29T00:19:37;13.0;68.7
78536;SHT31;67829;51.968;5.684;2023-04-29T00:22:08;13.0;69.0
78536;SHT31;67829;51.968;5.684;2023-04-29T00:24:37;13.0;69.1
78536;SHT31;67829;51.968;5.684;2023-04-29T00:27:06;13.0;69.3
78536;SHT31;67829;51.968;5.684;2023-04-29T00:29:37;13.0;69.6
78536;SHT31;67829;51.968;5.684;2023-04-29T00:32:06;12.9;69.7
78536;SHT31;67829;51.968;5.684;2023-04-29T00:34:34;12.9;70.2
78536;SHT31;67829;51.968;5.684;2023-04-29T00:37:03;12.9;70.2
78536;SHT31;67829;51.968;5.684;2023-04-29T00:39:31;12.9;70.2
78536;SHT31;67829;51.968;5.684;2023-04-29T00:42:00;12.9;70.4
78536;SHT31;67829;51.968;5.684;2023-04-29T00:44:29;12.9;70.7
78536;SHT31;67829;51.968;5.684;2023-04-29T00:46:57;12.9;70.7
78536;SHT31;67829;51.968;5.684;2023-04-29T00:49:27;12.9;70.5
78536;SHT31;67829;51.968;5.684;2023-04-29T00:51:56;12.9;70.6
78536;SHT31;67829;51.968;5.684;2023-04-29T00:54:27;12.9;70.5
78536;SHT31;67829;51.968;5.684;2023-04-29T00:56:57;12.9;70.6
78536;SHT31;67829;51.968;5.684;2023-04-29T00:59:27;12.9;70.8
78536;SHT31;67829;51.968;5.684;2023-04-29T01:02:00;12.9;70.8
78536;SHT31;67829;51.968;5.684;2023-04-29T01:04:29;12.9;70.5
78536;SHT31;67829;51.968;5.684;2023-04-29T01:07:06;12.9;70.5
78536;SHT31;67829;51.968;5.684;2023-04-29T01:09:52;12.8;70.6
78536;SHT31;67829;51.968;5.684;2023-04-29T01:12:30;12.8;70.4
78536;SHT31;67829;51.968;5.684;2023-04-29T01:15:07;12.8;70.7
78536;SHT31;67829;51.968;5.684;2023-04-29T01:17:41;12.8;70.8
78536;SHT31;67829;51.968;5.684;2023-04-29T01:20:12;12.8;70.8
78536;SHT31;67829;51.968;5.684;2023-04-29T01:22:41;12.8;70.9
78536;SHT31;67829;51.968;5.684;2023-04-29T01:25:10;12.8;70.8
78536;SHT31;67829;51.968;5.684;2023-04-29T01:27:48;12.8;71.0
78536;SHT31;67829;51.968;5.684;2023-04-29T01:30:30;12.7;71.1
78536;SHT31;67829;51.968;5.684;2023-04-29T01:33:05;12.7;71.2
78536;SHT31;67829;51.968;5.684;2023-04-29T01:35:48;12.7;71.0
78536;SHT31;67829;51.968;5.684;2023-04-29T01:38:28;12.7;71.3
78536;SHT31;67829;51.968;5.684;2023-04-29T01:41:11;12.7;71.2
78536;SHT31;67829;51.968;5.684;2023-04-29T01:43:42;12.7;71.4
78536;SHT31;67829;51.968;5.684;2023-04-29T01:46:15;12.7;70.9
78536;SHT31;67829;51.968;5.684;2023-04-29T01:48:44;12.7;70.8
78536;SHT31;67829;51.968;5.684;2023-04-29T01:51:13;12.7;70.9
78536;SHT31;67829;51.968;5.684;2023-04-29T01:53:42;12.7;71.0
78536;SHT31;67829;51.968;5.684;2023-04-29T01:56:12;12.7;71.0
78536;SHT31;67829;51.968;5.684;2023-04-29T01:58:41;12.7;71.0
78536;SHT31;67829;51.968;5.684;2023-04-29T02:01:10;12.7;71.0
78536;SHT31;67829;51.968;5.684;2023-04-29T02:03:39;12.7;71.2
78536;SHT31;67829;51.968;5.684;2023-04-29T02:06:08;12.7;71.0
78536;SHT31;67829;51.968;5.684;2023-04-29T02:08:36;12.7;70.7
78536;SHT31;67829;51.968;5.684;2023-04-29T02:11:05;12.7;70.8
78536;SHT31;67829;51.968;5.684;2023-04-29T02:13:33;12.7;70.8
78536;SHT31;67829;51.968;5.684;2023-04-29T02:16:08;12.7;70.9
78536;SHT31;67829;51.968;5.684;2023-04-29T02:18:37;12.7;71.0
78536;SHT31;67829;51.968;5.684;2023-04-29T02:21:06;12.7;71.2
78536;SHT31;67829;51.968;5.684;2023-04-29T02:23:35;12.7;70.9
78536;SHT31;67829;51.968;5.684;2023-04-29T02:26:04;12.7;70.7
78536;SHT31;67829;51.968;5.684;2023-04-29T02:28:37;12.6;70.9
78536;SHT31;67829;51.968;5.684;2023-04-29T02:31:05;12.6;70.6
78536;SHT31;67829;51.968;5.684;2023-04-29T02:33:34;12.6;70.8
78536;SHT31;67829;51.968;5.684;2023-04-29T02:36:03;12.6;70.7
78536;SHT31;67829;51.968;5.684;2023-04-29T02:38:31;12.6;70.7
78536;SHT31;67829;51.968;5.684;2023-04-29T02:41:00;12.6;70.8
78536;SHT31;67829;51.968;5.684;2023-04-29T02:43:28;12.5;70.8
78536;SHT31;67829;51.968;5.684;2023-04-29T02:45:57;12.5;71.0
78536;SHT31;67829;51.968;5.684;2023-04-29T02:48:26;12.5;71.0
78536;SHT31;67829;51.968;5.684;2023-04-29T02:50:54;12.5;71.2
78536;SHT31;67829;51.968;5.684;2023-04-29T02:53:23;12.5;70.8
78536;SHT31;67829;51.968;5.684;2023-04-29T02:55:52;12.5;71.0
78536;SHT31;67829;51.968;5.684;2023-04-29T02:58:21;12.5;71.1
78536;SHT31;67829;51.968;5.684;2023-04-29T03:00:49;12.5;71.2
78536;SHT31;67829;51.968;5.684;2023-04-29T03:03:19;12.5;71.1
78536;SHT31;67829;51.968;5.684;2023-04-29T03:05:48;12.5;71.2
78536;SHT31;67829;51.968;5.684;2023-04-29T03:08:17;12.5;70.8
78536;SHT31;67829;51.968;5.684;2023-04-29T03:10:46;12.5;70.7
78536;SHT31;67829;51.968;5.684;2023-04-29T03:13:14;12.5;70.7
78536;SHT31;67829;51.968;5.684;2023-04-29T03:15:43;12.5;70.3
78536;SHT31;67829;51.968;5.684;2023-04-29T03:18:12;12.5;70.6
78536;SHT31;67829;51.968;5.684;2023-04-29T03:20:40;12.5;70.6
78536;SHT31;67829;51.968;5.684;2023-04-29T03:23:09;12.5;70.3
78536;SHT31;67829;51.968;5.684;2023-04-29T03:25:37;12.5;70.2
78536;SHT31;67829;51.968;5.684;2023-04-29T03:28:07;12.5;70.5
78536;SHT31;67829;51.968;5.684;2023-04-29T03:30:37;12.5;70.2
78536;SHT31;67829;51.968;5.684;2023-04-29T03:33:06;12.5;70.1
78536;SHT31;67829;51.968;5.684;2023-04-29T03:35:35;12.5;70.1
78536;SHT31;67829;51.968;5.684;2023-04-29T03:38:03;12.5;70.1
78536;SHT31;67829;51.968;5.684;2023-04-29T03:40:32;12.5;70.1
78536;SHT31;67829;51.968;5.684;2023-04-29T03:43:01;12.5;70.0
78536;SHT31;67829;51.968;5.684;2023-04-29T03:45:29;12.5;69.9
78536;SHT31;67829;51.968;5.684;2023-04-29T03:47:58;12.5;69.8
78536;SHT31;67829;51.968;5.684;2023-04-29T03:50:28;12.5;69.7
78536;SHT31;67829;51.968;5.684;2023-04-29T03:52:57;12.5;69.8
78536;SHT31;67829;51.968;5.684;2023-04-29T03:55:25;12.5;69.7
78536;SHT31;67829;51.968;5.684;2023-04-29T03:57:54;12.5;70.0
78536;SHT31;67829;51.968;5.684;2023-04-29T04:00:22;12.5;69.7
78536;SHT31;67829;51.968;5.684;2023-04-29T04:02:51;12.5;70.0
78536;SHT31;67829;51.968;5.684;2023-04-29T04:05:20;12.4;69.9
78536;SHT31;67829;51.968;5.684;2023-04-29T04:07:50;12.4;69.8
78536;SHT31;67829;51.968;5.684;2023-04-29T04:10:19;12.4;69.8
78536;SHT31;67829;51.968;5.684;2023-04-29T04:12:48;12.4;70.0
78536;SHT31;67829;51.968;5.684;2023-04-29T04:15:17;12.4;70.3
78536;SHT31;67829;51.968;5.684;2023-04-29T04:17:48;12.4;70.5
78536;SHT31;67829;51.968;5.684;2023-04-29T04:20:18;12.4;70.2
78536;SHT31;67829;51.968;5.684;2023-04-29T04:22:47;12.5;70.1
78536;SHT31;67829;51.968;5.684;2023-04-29T04:25:15;12.5;70.0
78536;SHT31;67829;51.968;5.684;2023-04-29T04:27:44;12.5;69.8
78536;SHT31;67829;51.968;5.684;2023-04-29T04:30:13;12.5;69.6
78536;SHT31;67829;51.968;5.684;2023-04-29T04:32:42;12.5;69.6
78536;SHT31;67829;51.968;5.684;2023-04-29T04:35:10;12.5;69.7
78536;SHT31;67829;51.968;5.684;2023-04-29T04:37:39;12.5;69.7
78536;SHT31;67829;51.968;5.684;2023-04-29T04:40:09;12.5;69.9
78536;SHT31;67829;51.968;5.684;2023-04-29T04:42:39;12.5;69.6
78536;SHT31;67829;51.968;5.684;2023-04-29T04:45:08;12.5;69.8
78536;SHT31;67829;51.968;5.684;2023-04-29T04:47:39;12.5;69.7
78536;SHT31;67829;51.968;5.684;2023-04-29T04:50:09;12.5;69.8
78536;SHT31;67829;51.968;5.684;2023-04-29T04:52:37;12.6;69.9
78536;SHT31;67829;51.968;5.684;2023-04-29T04:55:07;12.6;69.9
78536;SHT31;67829;51.968;5.684;2023-04-29T04:57:36;12.6;69.6
78536;SHT31;67829;51.968;5.684;2023-04-29T05:00:05;12.6;69.6
78536;SHT31;67829;51.968;5.684;2023-04-29T05:02:34;12.6;69.6
78536;SHT31;67829;51.968;5.684;2023-04-29T05:05:03;12.6;69.2
78536;SHT31;67829;51.968;5.684;2023-04-29T05:07:32;12.6;69.0
78536;SHT31;67829;51.968;5.684;2023-04-29T05:10:01;12.6;69.0
78536;SHT31;67829;51.968;5.684;2023-04-29T05:12:30;12.6;69.1
78536;SHT31;67829;51.968;5.684;2023-04-29T05:15:00;12.6;69.0
78536;SHT31;67829;51.968;5.684;2023-04-29T05:17:29;12.6;68.9
78536;SHT31;67829;51.968;5.684;2023-04-29T05:20:00;12.6;68.7
78536;SHT31;67829;51.968;5.684;2023-04-29T05:22:29;12.6;68.4
78536;SHT31;67829;51.968;5.684;2023-04-29T05:24:57;12.6;68.3
78536;SHT31;67829;51.968;5.684;2023-04-29T05:27:28;12.6;68.1
78536;SHT31;67829;51.968;5.684;2023-04-29T05:29:59;12.6;68.6
78536;SHT31;67829;51.968;5.684;2023-04-29T05:32:28;12.6;68.3
78536;SHT31;67829;51.968;5.684;2023-04-29T05:34:57;12.7;68.3
78536;SHT31;67829;51.968;5.684;2023-04-29T05:37:25;12.7;67.7
78536;SHT31;67829;51.968;5.684;2023-04-29T05:39:56;12.7;67.9
78536;SHT31;67829;51.968;5.684;2023-04-29T05:42:25;12.7;67.7
78536;SHT31;67829;51.968;5.684;2023-04-29T05:44:54;12.7;67.4
78536;SHT31;67829;51.968;5.684;2023-04-29T05:47:22;12.7;67.3
78536;SHT31;67829;51.968;5.684;2023-04-29T05:49:51;12.7;66.9
78536;SHT31;67829;51.968;5.684;2023-04-29T05:52:20;12.7;67.1
78536;SHT31;67829;51.968;5.684;2023-04-29T05:54:48;12.7;67.2
78536;SHT31;67829;51.968;5.684;2023-04-29T05:57:17;12.7;67.2
78536;SHT31;67829;51.968;5.684;2023-04-29T05:59:47;12.8;67.4
78536;SHT31;67829;51.968;5.684;2023-04-29T06:02:16;12.8;66.9
78536;SHT31;67829;51.968;5.684;2023-04-29T06:04:44;12.8;67.6
78536;SHT31;67829;51.968;5.684;2023-04-29T06:07:14;12.8;67.2
78536;SHT31;67829;51.968;5.684;2023-04-29T06:09:43;12.9;66.6
78536;SHT31;67829;51.968;5.684;2023-04-29T06:12:13;12.9;66.7
78536;SHT31;67829;51.968;5.684;2023-04-29T06:14:42;12.9;66.7
78536;SHT31;67829;51.968;5.684;2023-04-29T06:17:11;12.9;67.1
78536;SHT31;67829;51.968;5.684;2023-04-29T06:19:40;13.0;67.1
78536;SHT31;67829;51.968;5.684;2023-04-29T06:22:08;13.0;66.6
78536;SHT31;67829;51.968;5.684;2023-04-29T06:24:39;13.0;66.9
78536;SHT31;67829;51.968;5.684;2023-04-29T06:27:08;13.0;67.1
78536;SHT31;67829;51.968;5.684;2023-04-29T06:29:36;13.0;67.2
78536;SHT31;67829;51.968;5.684;2023-04-29T06:32:05;13.1;66.4
78536;SHT31;67829;51.968;5.684;2023-04-29T06:34:34;13.1;66.3
78536;SHT31;67829;51.968;5.684;2023-04-29T06:37:04;13.1;66.2
78536;SHT31;67829;51.968;5.684;2023-04-29T06:39:33;13.1;66.1
78536;SHT31;67829;51.968;5.684;2023-04-29T06:42:02;13.2;66.1
78536;SHT31;67829;51.968;5.684;2023-04-29T06:44:30;13.2;65.9
78536;SHT31;67829;51.968;5.684;2023-04-29T06:46:59;13.2;66.4
78536;SHT31;67829;51.968;5.684;2023-04-29T06:49:27;13.2;66.1
78536;SHT31;67829;51.968;5.684;2023-04-29T06:51:56;13.3;66.0
78536;SHT31;67829;51.968;5.684;2023-04-29T06:54:24;13.3;65.7
78536;SHT31;67829;51.968;5.684;2023-04-29T06:56:54;13.3;65.7
78536;SHT31;67829;51.968;5.684;2023-04-29T06:59:23;13.4;65.8
78536;SHT31;67829;51.968;5.684;2023-04-29T07:01:52;13.4;66.2
78536;SHT31;67829;51.968;5.684;2023-04-29T07:04:21;13.4;65.5
78536;SHT31;67829;51.968;5.684;2023-04-29T07:06:49;13.5;66.0
78536;SHT31;67829;51.968;5.684;2023-04-29T07:09:21;13.5;64.9
78536;SHT31;67829;51.968;5.684;2023-04-29T07:11:54;13.6;63.3
78536;SHT31;67829;51.968;5.684;2023-04-29T07:14:22;13.6;63.9
78536;SHT31;67829;51.968;5.684;2023-04-29T07:16:54;13.6;64.1
78536;SHT31;67829;51.968;5.684;2023-04-29T07:19:22;13.6;65.2
78536;SHT31;67829;51.968;5.684;2023-04-29T07:21:51;13.7;64.6
78536;SHT31;67829;51.968;5.684;2023-04-29T07:24:21;13.7;63.1
78536;SHT31;67829;51.968;5.684;2023-04-29T07:26:50;13.7;63.0
78536;SHT31;67829;51.968;5.684;2023-04-29T07:29:19;13.8;63.3
78536;SHT31;67829;51.968;5.684;2023-04-29T07:31:47;13.8;62.9
78536;SHT31;67829;51.968;5.684;2023-04-29T07:34:16;13.9;64.0
78536;SHT31;67829;51.968;5.684;2023-04-29T07:36:45;13.9;62.6
78536;SHT31;67829;51.968;5.684;2023-04-29T07:39:13;14.0;63.5
78536;SHT31;67829;51.968;5.684;2023-04-29T07:41:42;14.0;61.5
78536;SHT31;67829;51.968;5.684;2023-04-29T07:44:11;14.1;61.4
78536;SHT31;67829;51.968;5.684;2023-04-29T07:46:39;14.1;61.3
78536;SHT31;67829;51.968;5.684;2023-04-29T07:49:08;14.2;60.0
78536;SHT31;67829;51.968;5.684;2023-04-29T07:51:39;14.2;61.1
78536;SHT31;67829;51.968;5.684;2023-04-29T07:54:09;14.3;59.5
78536;SHT31;67829;51.968;5.684;2023-04-29T07:56:39;14.3;60.1
78536;SHT31;67829;51.968;5.684;2023-04-29T07:59:08;14.3;60.5
78536;SHT31;67829;51.968;5.684;2023-04-29T08:01:36;14.3;59.7
78536;SHT31;67829;51.968;5.684;2023-04-29T08:04:05;14.3;58.9
78536;SHT31;67829;51.968;5.684;2023-04-29T08:06:34;14.4;60.2
78536;SHT31;67829;51.968;5.684;2023-04-29T08:09:03;14.4;58.9
78536;SHT31;67829;51.968;5.684;2023-04-29T08:11:31;14.4;59.2
78536;SHT31;67829;51.968;5.684;2023-04-29T08:14:00;14.5;59.3
78536;SHT31;67829;51.968;5.684;2023-04-29T08:16:29;14.5;60.0
78536;SHT31;67829;51.968;5.684;2023-04-29T08:18:59;14.5;58.9
78536;SHT31;67829;51.968;5.684;2023-04-29T08:21:27;14.6;58.9
78536;SHT31;67829;51.968;5.684;2023-04-29T08:23:57;14.6;58.3
78536;SHT31;67829;51.968;5.684;2023-04-29T08:26:28;14.7;57.8
78536;SHT31;67829;51.968;5.684;2023-04-29T08:28:56;14.7;57.2
78536;SHT31;67829;51.968;5.684;2023-04-29T08:31:25;14.7;56.7
78536;SHT31;67829;51.968;5.684;2023-04-29T08:33:56;14.8;57.5
78536;SHT31;67829;51.968;5.684;2023-04-29T08:36:25;14.8;56.2
78536;SHT31;67829;51.968;5.684;2023-04-29T08:38:55;14.8;57.0
78536;SHT31;67829;51.968;5.684;2023-04-29T08:41:23;14.9;57.2
78536;SHT31;67829;51.968;5.684;2023-04-29T08:43:52;14.9;56.8
78536;SHT31;67829;51.968;5.684;2023-04-29T08:46:24;15.0;56.7
78536;SHT31;67829;51.968;5.684;2023-04-29T08:48:54;15.0;57.0
78536;SHT31;67829;51.968;5.684;2023-04-29T08:51:24;15.1;57.0
78536;SHT31;67829;51.968;5.684;2023-04-29T08:53:55;15.1;56.7
78536;SHT31;67829;51.968;5.684;2023-04-29T08:56:23;15.1;55.4
78536;SHT31;67829;51.968;5.684;2023-04-29T08:58:56;15.1;55.3
78536;SHT31;67829;51.968;5.684;2023-04-29T09:01:26;15.1;55.6
78536;SHT31;67829;51.968;5.684;2023-04-29T09:04:07;15.1;54.8
78536;SHT31;67829;51.968;5.684;2023-04-29T09:06:37;15.1;55.0
78536;SHT31;67829;51.968;5.684;2023-04-29T09:09:06;15.1;55.7
78536;SHT31;67829;51.968;5.684;2023-04-29T09:11:36;15.1;56.1
78536;SHT31;67829;51.968;5.684;2023-04-29T09:14:04;15.1;54.4
78536;SHT31;67829;51.968;5.684;2023-04-29T09:16:34;15.1;55.0
78536;SHT31;67829;51.968;5.684;2023-04-29T09:19:04;15.1;56.9
78536;SHT31;67829;51.968;5.684;2023-04-29T09:21:33;15.2;56.3
78536;SHT31;67829;51.968;5.684;2023-04-29T09:24:02;15.3;55.6
78536;SHT31;67829;51.968;5.684;2023-04-29T09:26:41;15.4;55.5
78536;SHT31;67829;51.968;5.684;2023-04-29T09:29:12;15.4;54.6
78536;SHT31;67829;51.968;5.684;2023-04-29T09:31:44;15.5;53.9
78536;SHT31;67829;51.968;5.684;2023-04-29T09:34:13;15.5;54.0
78536;SHT31;67829;51.968;5.684;2023-04-29T09:36:44;15.6;52.9
78536;SHT31;67829;51.968;5.684;2023-04-29T09:39:15;15.6;53.7
78536;SHT31;67829;51.968;5.684;2023-04-29T09:42:00;15.6;53.7
78536;SHT31;67829;51.968;5.684;2023-04-29T09:44:32;15.6;53.1
78536;SHT31;67829;51.968;5.684;2023-04-29T09:47:02;15.7;52.2
78536;SHT31;67829;51.968;5.684;2023-04-29T09:49:33;15.7;52.1
78536;SHT31;67829;51.968;5.684;2023-04-29T09:52:05;15.8;51.8
78536;SHT31;67829;51.968;5.684;2023-04-29T09:54:35;15.8;51.8
78536;SHT31;67829;51.968;5.684;2023-04-29T09:57:07;15.9;52.5
78536;SHT31;67829;51.968;5.684;2023-04-29T09:59:38;15.9;52.3
78536;SHT31;67829;51.968;5.684;2023-04-29T10:02:12;16.0;52.3
78536;SHT31;67829;51.968;5.684;2023-04-29T10:04:44;16.0;52.4
78536;SHT31;67829;51.968;5.684;2023-04-29T10:07:16;16.1;50.9
78536;SHT31;67829;51.968;5.684;2023-04-29T10:09:46;16.1;50.0
78536;SHT31;67829;51.968;5.684;2023-04-29T10:12:18;16.2;49.8
78536;SHT31;67829;51.968;5.684;2023-04-29T10:14:53;16.3;50.8
78536;SHT31;67829;51.968;5.684;2023-04-29T10:17:31;16.3;50.8
78536;SHT31;67829;51.968;5.684;2023-04-29T10:20:04;16.4;50.3
78536;SHT31;67829;51.968;5.684;2023-04-29T10:22:41;16.4;50.3
78536;SHT31;67829;51.968;5.684;2023-04-29T10:25:14;16.5;50.2
78536;SHT31;67829;51.968;5.684;2023-04-29T10:27:44;16.5;48.9
78536;SHT31;67829;51.968;5.684;2023-04-29T10:30:17;16.5;49.5
78536;SHT31;67829;51.968;5.684;2023-04-29T10:32:48;16.6;49.9
78536;SHT31;67829;51.968;5.684;2023-04-29T10:35:19;16.6;49.7
78536;SHT31;67829;51.968;5.684;2023-04-29T10:37:50;16.6;48.4
78536;SHT31;67829;51.968;5.684;2023-04-29T10:40:23;16.6;50.9
78536;SHT31;67829;51.968;5.684;2023-04-29T10:42:56;16.7;49.3
78536;SHT31;67829;51.968;5.684;2023-04-29T10:45:26;16.7;49.4
78536;SHT31;67829;51.968;5.684;2023-04-29T10:48:09;16.8;49.5
78536;SHT31;67829;51.968;5.684;2023-04-29T10:51:01;16.8;48.3
78536;SHT31;67829;51.968;5.684;2023-04-29T10:53:31;16.8;48.9
78536;SHT31;67829;51.968;5.684;2023-04-29T10:56:07;16.9;48.6
78536;SHT31;67829;51.968;5.684;2023-04-29T10:58:41;16.9;50.0
78536;SHT31;67829;51.968;5.684;2023-04-29T11:01:12;17.0;49.3
78536;SHT31;67829;51.968;5.684;2023-04-29T11:03:56;17.0;49.9
78536;SHT31;67829;51.968;5.684;2023-04-29T11:06:41;17.1;48.5
78536;SHT31;67829;51.968;5.684;2023-04-29T11:09:12;17.2;48.8
78536;SHT31;67829;51.968;5.684;2023-04-29T11:11:46;17.2;47.8
78536;SHT31;67829;51.968;5.684;2023-04-29T11:14:22;17.3;46.9
78536;SHT31;67829;51.968;5.684;2023-04-29T11:16:53;17.3;46.5
78536;SHT31;67829;51.968;5.684;2023-04-29T11:19:23;17.3;46.7
78536;SHT31;67829;51.968;5.684;2023-04-29T11:22:10;17.3;47.7
78536;SHT31;67829;51.968;5.684;2023-04-29T11:24:50;17.3;47.3
78536;SHT31;67829;51.968;5.684;2023-04-29T11:27:20;17.4;47.8
78536;SHT31;67829;51.968;5.684;2023-04-29T11:29:51;17.4;47.7
78536;SHT31;67829;51.968;5.684;2023-04-29T11:32:24;17.5;45.8
78536;SHT31;67829;51.968;5.684;2023-04-29T11:34:56;17.5;46.0
78536;SHT31;67829;51.968;5.684;2023-04-29T11:37:31;17.5;45.6
78536;SHT31;67829;51.968;5.684;2023-04-29T11:40:00;17.6;46.2
78536;SHT31;67829;51.968;5.684;2023-04-29T11:42:29;17.6;46.4
78536;SHT31;67829;51.968;5.684;2023-04-29T11:44:57;17.7;45.9
78536;SHT31;67829;51.968;5.684;2023-04-29T11:47:29;17.8;46.5
78536;SHT31;67829;51.968;5.684;2023-04-29T11:50:06;17.8;46.0
78536;SHT31;67829;51.968;5.684;2023-04-29T11:52:38;17.8;45.7
78536;SHT31;67829;51.968;5.684;2023-04-29T11:55:08;17.9;45.5
78536;SHT31;67829;51.968;5.684;2023-04-29T11:57:37;17.9;46.4
78536;SHT31;67829;51.968;5.684;2023-04-29T12:00:08;17.9;47.8
78536;SHT31;67829;51.968;5.684;2023-04-29T12:02:38;17.9;45.0
78536;SHT31;67829;51.968;5.684;2023-04-29T12:05:07;17.9;45.6
78536;SHT31;67829;51.968;5.684;2023-04-29T12:07:38;17.9;45.1
78536;SHT31;67829;51.968;5.684;2023-04-29T12:10:09;18.0;45.0
78536;SHT31;67829;51.968;5.684;2023-04-29T12:12:39;18.0;45.8
78536;SHT31;67829;51.968;5.684;2023-04-29T12:15:10;18.1;45.7
78536;SHT31;67829;51.968;5.684;2023-04-29T12:17:39;18.1;44.8
78536;SHT31;67829;51.968;5.684;2023-04-29T12:20:12;18.2;44.7
78536;SHT31;67829;51.968;5.684;2023-04-29T12:22:41;18.3;44.5
78536;SHT31;67829;51.968;5.684;2023-04-29T12:25:11;18.3;44.7
78536;SHT31;67829;51.968;5.684;2023-04-29T12:27:40;18.3;43.1
78536;SHT31;67829;51.968;5.684;2023-04-29T12:30:10;18.3;45.2
78536;SHT31;67829;51.968;5.684;2023-04-29T12:32:39;18.3;43.7
78536;SHT31;67829;51.968;5.684;2023-04-29T12:35:17;18.3;43.6
78536;SHT31;67829;51.968;5.684;2023-04-29T12:37:49;18.4;44.7
78536;SHT31;67829;51.968;5.684;2023-04-29T12:40:18;18.4;43.0
78536;SHT31;67829;51.968;5.684;2023-04-29T12:42:48;18.5;43.5
78536;SHT31;67829;51.968;5.684;2023-04-29T12:45:32;18.5;44.0
78536;SHT31;67829;51.968;5.684;2023-04-29T12:48:01;18.5;44.8
78536;SHT31;67829;51.968;5.684;2023-04-29T12:50:32;18.5;43.3
78536;SHT31;67829;51.968;5.684;2023-04-29T12:53:02;18.6;43.3
78536;SHT31;67829;51.968;5.684;2023-04-29T12:55:33;18.6;43.0
78536;SHT31;67829;51.968;5.684;2023-04-29T12:58:02;18.6;43.4
78536;SHT31;67829;51.968;5.684;2023-04-29T13:00:32;18.6;42.9
78536;SHT31;67829;51.968;5.684;2023-04-29T13:03:03;18.6;43.9
78536;SHT31;67829;51.968;5.684;2023-04-29T13:05:32;18.6;42.1
78536;SHT31;67829;51.968;5.684;2023-04-29T13:08:01;18.7;43.3
78536;SHT31;67829;51.968;5.684;2023-04-29T13:10:31;18.7;42.5
78536;SHT31;67829;51.968;5.684;2023-04-29T13:13:00;18.7;42.5
78536;SHT31;67829;51.968;5.684;2023-04-29T13:15:30;18.7;42.0
78536;SHT31;67829;51.968;5.684;2023-04-29T13:17:59;18.8;41.5
78536;SHT31;67829;51.968;5.684;2023-04-29T13:20:28;18.8;41.3
78536;SHT31;67829;51.968;5.684;2023-04-29T13:22:59;18.8;41.4
78536;SHT31;67829;51.968;5.684;2023-04-29T13:25:28;18.8;42.1
78536;SHT31;67829;51.968;5.684;2023-04-29T13:27:57;18.8;43.0
78536;SHT31;67829;51.968;5.684;2023-04-29T13:30:25;18.8;41.2
78536;SHT31;67829;51.968;5.684;2023-04-29T13:32:54;18.8;41.0
78536;SHT31;67829;51.968;5.684;2023-04-29T13:35:22;18.9;42.0
78536;SHT31;67829;51.968;5.684;2023-04-29T13:37:51;18.9;41.5
78536;SHT31;67829;51.968;5.684;2023-04-29T13:40:21;18.9;40.8
78536;SHT31;67829;51.968;5.684;2023-04-29T13:42:50;18.9;43.0
78536;SHT31;67829;51.968;5.684;2023-04-29T13:45:19;19.0;43.0
78536;SHT31;67829;51.968;5.684;2023-04-29T13:47:47;19.0;40.7
78536;SHT31;67829;51.968;5.684;2023-04-29T13:50:16;19.1;41.8
78536;SHT31;67829;51.968;5.684;2023-04-29T13:52:44;19.1;40.7
78536;SHT31;67829;51.968;5.684;2023-04-29T13:55:13;19.1;40.2
78536;SHT31;67829;51.968;5.684;2023-04-29T13:57:42;19.1;40.8
78536;SHT31;67829;51.968;5.684;2023-04-29T14:00:11;19.1;40.5
78536;SHT31;67829;51.968;5.684;2023-04-29T14:02:42;19.1;40.6
78536;SHT31;67829;51.968;5.684;2023-04-29T14:05:11;19.1;42.1
78536;SHT31;67829;51.968;5.684;2023-04-29T14:07:40;19.1;41.1
78536;SHT31;67829;51.968;5.684;2023-04-29T14:10:08;19.1;41.7
78536;SHT31;67829;51.968;5.684;2023-04-29T14:12:37;19.1;40.3
78536;SHT31;67829;51.968;5.684;2023-04-29T14:15:08;19.2;40.8
78536;SHT31;67829;51.968;5.684;2023-04-29T14:17:37;19.2;40.8
78536;SHT31;67829;51.968;5.684;2023-04-29T14:20:07;19.2;40.8
78536;SHT31;67829;51.968;5.684;2023-04-29T14:22:35;19.2;41.0
78536;SHT31;67829;51.968;5.684;2023-04-29T14:25:04;19.2;41.6
78536;SHT31;67829;51.968;5.684;2023-04-29T14:27:33;19.2;41.4
78536;SHT31;67829;51.968;5.684;2023-04-29T14:30:02;19.2;41.8
78536;SHT31;67829;51.968;5.684;2023-04-29T14:32:32;19.2;41.9
78536;SHT31;67829;51.968;5.684;2023-04-29T14:35:00;19.2;41.8
78536;SHT31;67829;51.968;5.684;2023-04-29T14:37:29;19.2;42.0
78536;SHT31;67829;51.968;5.684;2023-04-29T14:39:57;19.2;41.6
78536;SHT31;67829;51.968;5.684;2023-04-29T14:42:26;19.2;41.7
78536;SHT31;67829;51.968;5.684;2023-04-29T14:44:55;19.2;41.2
78536;SHT31;67829;51.968;5.684;2023-04-29T14:47:23;19.2;41.6
78536;SHT31;67829;51.968;5.684;2023-04-29T14:49:52;19.3;41.1
78536;SHT31;67829;51.968;5.684;2023-04-29T14:52:23;19.3;40.3
78536;SHT31;67829;51.968;5.684;2023-04-29T14:54:52;19.4;40.8
78536;SHT31;67829;51.968;5.684;2023-04-29T14:57:20;19.4;41.4
78536;SHT31;67829;51.968;5.684;2023-04-29T14:59:49;19.4;42.1
78536;SHT31;67829;51.968;5.684;2023-04-29T15:02:17;19.5;42.8
78536;SHT31;67829;51.968;5.684;2023-04-29T15:04:46;19.5;42.7
78536;SHT31;67829;51.968;5.684;2023-04-29T15:07:15;19.5;42.5
78536;SHT31;67829;51.968;5.684;2023-04-29T15:09:46;19.5;42.6
78536;SHT31;67829;51.968;5.684;2023-04-29T15:12:15;19.6;43.0
78536;SHT31;67829;51.968;5.684;2023-04-29T15:14:45;19.6;42.7
78536;SHT31;67829;51.968;5.684;2023-04-29T15:17:14;19.6;44.0
78536;SHT31;67829;51.968;5.684;2023-04-29T15:19:42;19.6;43.0
78536;SHT31;67829;51.968;5.684;2023-04-29T15:22:11;19.6;42.0
78536;SHT31;67829;51.968;5.684;2023-04-29T15:24:42;19.7;41.8
78536;SHT31;67829;51.968;5.684;2023-04-29T15:27:10;19.7;42.1
78536;SHT31;67829;51.968;5.684;2023-04-29T15:29:41;19.7;42.3
78536;SHT31;67829;51.968;5.684;2023-04-29T15:32:09;19.7;41.6
78536;SHT31;67829;51.968;5.684;2023-04-29T15:34:40;19.8;41.2
78536;SHT31;67829;51.968;5.684;2023-04-29T15:37:09;19.8;41.8
78536;SHT31;67829;51.968;5.684;2023-04-29T15:39:37;19.8;41.7
78536;SHT31;67829;51.968;5.684;2023-04-29T15:42:06;19.8;42.3
78536;SHT31;67829;51.968;5.684;2023-04-29T15:44:35;19.8;41.9
78536;SHT31;67829;51.968;5.684;2023-04-29T15:47:03;19.8;41.4
78536;SHT31;67829;51.968;5.684;2023-04-29T15:49:32;19.8;41.8
78536;SHT31;67829;51.968;5.684;2023-04-29T15:52:00;19.9;41.6
78536;SHT31;67829;51.968;5.684;2023-04-29T15:54:29;20.0;41.7
78536;SHT31;67829;51.968;5.684;2023-04-29T15:56:58;20.1;40.8
78536;SHT31;67829;51.968;5.684;2023-04-29T15:59:28;20.3;40.5
78536;SHT31;67829;51.968;5.684;2023-04-29T16:01:57;20.4;40.2
78536;SHT31;67829;51.968;5.684;2023-04-29T16:04:26;20.6;40.3
78536;SHT31;67829;51.968;5.684;2023-04-29T16:06:56;20.7;40.2
78536;SHT31;67829;51.968;5.684;2023-04-29T16:09:26;20.9;39.5
78536;SHT31;67829;51.968;5.684;2023-04-29T16:11:55;21.1;38.8
78536;SHT31;67829;51.968;5.684;2023-04-29T16:14:24;21.3;38.2
78536;SHT31;67829;51.968;5.684;2023-04-29T16:16:53;21.4;37.6
78536;SHT31;67829;51.968;5.684;2023-04-29T16:19:22;21.4;38.7
78536;SHT31;67829;51.968;5.684;2023-04-29T16:21:50;21.5;37.7